METAR Data
IDs: Format: Raw Decoded Include TAF

Data at: 0137 UTC 19 Oct 2021

KDRT 190053Z AUTO 11009KT 10SM CLR 26/12 A2995 RMK AO2 SLP136 T02610122